createdAt,value
2022-09-25T00:00:57.823Z,3.97
2022-09-25T00:03:27.707Z,5.75
2022-09-25T00:06:02.065Z,3.72
2022-09-25T00:08:29.733Z,3.60
2022-09-25T00:10:56.766Z,3.50
2022-09-25T00:13:24.375Z,6.43
2022-09-25T00:15:57.635Z,5.47
2022-09-25T00:18:44.074Z,2.75
2022-09-25T00:21:15.105Z,2.90
2022-09-25T00:23:44.928Z,6.80
2022-09-25T00:26:13.835Z,3.08
2022-09-25T00:28:41.679Z,7.40
2022-09-25T00:31:10.036Z,5.63
2022-09-25T00:33:37.433Z,2.53
2022-09-25T00:36:06.982Z,2.88
2022-09-25T00:38:35.451Z,2.65
2022-09-25T00:41:03.730Z,3.85
2022-09-25T00:43:44.746Z,7.35
2022-09-25T00:46:26.575Z,3.03
2022-09-25T00:49:05.125Z,2.90
2022-09-25T00:51:49.907Z,4.18
2022-09-25T00:54:26.071Z,3.10
2022-09-25T00:56:57.497Z,7.35
2022-09-25T00:59:29.753Z,4.30
2022-09-25T01:01:57.970Z,3.13
2022-09-25T01:04:26.459Z,5.72
2022-09-25T01:06:54.071Z,2.47
2022-09-25T01:09:21.959Z,5.28
2022-09-25T01:11:48.821Z,3.08
2022-09-25T01:14:17.542Z,2.50
2022-09-25T01:17:08.668Z,7.82
2022-09-25T01:19:53.719Z,5.68
2022-09-25T01:22:27.921Z,6.88
2022-09-25T01:25:31.703Z,10.82
2022-09-25T01:28:01.669Z,18.05
2022-09-25T01:30:33.735Z,34.22
2022-09-25T01:33:45.504Z,30.17
2022-09-25T01:36:18.762Z,53.25
2022-09-25T01:38:55.656Z,70.35
2022-09-25T01:41:47.909Z,94.05
2022-09-25T01:44:23.694Z,100.38
2022-09-25T01:46:56.621Z,83.75
2022-09-25T01:49:35.522Z,78.78
2022-09-25T01:52:07.958Z,102.40
2022-09-25T01:54:40.512Z,123.53
2022-09-25T01:57:23.343Z,118.65
2022-09-25T02:00:09.402Z,122.15
2022-09-25T02:03:07.817Z,109.53
2022-09-25T02:05:46.238Z,93.15
2022-09-25T02:08:22.297Z,93.93
2022-09-25T02:11:00.598Z,86.57
2022-09-25T02:13:34.977Z,91.78
2022-09-25T02:16:10.004Z,86.70
2022-09-25T02:18:55.876Z,79.80
2022-09-25T02:21:49.081Z,78.72
2022-09-25T02:24:27.063Z,76.85
2022-09-25T02:26:54.268Z,85.18
2022-09-25T02:29:21.284Z,74.82
2022-09-25T02:31:53.742Z,79.30
2022-09-25T02:34:22.236Z,67.68
2022-09-25T02:36:49.422Z,69.05
2022-09-25T02:39:21.986Z,70.15
2022-09-25T02:42:16.984Z,84.78
2022-09-25T02:45:20.912Z,55.40
2022-09-25T02:48:12.095Z,66.07
2022-09-25T02:50:54.740Z,59.60
2022-09-25T02:53:42.498Z,55.85
2022-09-25T02:56:15.405Z,52.78
2022-09-25T02:59:25.688Z,68.20
2022-09-25T03:01:53.299Z,58.17
2022-09-25T03:04:21.310Z,63.08
2022-09-25T03:06:48.504Z,46.72
2022-09-25T03:09:17.670Z,57.97
2022-09-25T03:11:44.622Z,60.35
2022-09-25T03:14:11.621Z,55.67
2022-09-25T03:16:57.028Z,48.97
2022-09-25T03:19:28.098Z,39.75
2022-09-25T03:21:55.457Z,30.23
2022-09-25T03:24:22.503Z,38.53
2022-09-25T03:26:49.583Z,25.30
2022-09-25T03:29:17.442Z,26.52
2022-09-25T03:31:45.727Z,40.55
2022-09-25T03:34:14.955Z,43.72
2022-09-25T03:36:42.558Z,44.95
2022-09-25T03:39:12.142Z,41.35
2022-09-25T03:41:38.998Z,53.75
2022-09-25T03:44:06.103Z,63.47
2022-09-25T03:46:34.999Z,50.88
2022-09-25T03:49:03.306Z,42.22
2022-09-25T03:51:32.169Z,53.65
2022-09-25T03:53:59.358Z,46.97
2022-09-25T03:56:29.865Z,44.22
2022-09-25T03:58:57.677Z,44.78
2022-09-25T04:01:26.445Z,39.30
2022-09-25T04:03:53.604Z,37.85
2022-09-25T04:06:24.297Z,21.58
2022-09-25T04:08:53.272Z,28.33
2022-09-25T04:11:21.901Z,32.58
2022-09-25T04:13:48.926Z,51.67
2022-09-25T04:16:17.332Z,42.67
2022-09-25T04:18:44.420Z,56.70
2022-09-25T04:21:13.746Z,78.45
2022-09-25T04:23:41.791Z,91.38
2022-09-25T04:26:09.781Z,90.30
2022-09-25T04:28:37.366Z,51.88
2022-09-25T04:31:04.938Z,40.67
2022-09-25T04:33:47.724Z,44.67
2022-09-25T04:36:16.571Z,30.10
2022-09-25T04:38:44.241Z,32.80
2022-09-25T04:41:11.633Z,29.60
2022-09-25T04:43:38.665Z,29.75
2022-09-25T04:46:07.689Z,46.22
2022-09-25T04:48:35.927Z,57.83
2022-09-25T04:51:04.150Z,56.72
2022-09-25T04:53:32.930Z,64.82
2022-09-25T04:56:05.482Z,70.88
2022-09-25T04:58:32.441Z,57.75
2022-09-25T05:01:05.370Z,56.13
2022-09-25T05:03:32.389Z,42.58
2022-09-25T05:05:59.985Z,49.15
2022-09-25T05:08:27.961Z,53.15
2022-09-25T05:10:54.981Z,71.30
2022-09-25T05:13:21.996Z,70.15
2022-09-25T05:15:48.960Z,71.00
2022-09-25T05:18:18.820Z,61.35
2022-09-25T05:20:46.488Z,65.05
2022-09-25T05:23:13.691Z,66.75
2022-09-25T05:25:40.687Z,66.95
2022-09-25T05:28:07.622Z,65.40
2022-09-25T05:30:36.712Z,60.83
2022-09-25T05:33:03.682Z,54.20
2022-09-25T05:35:33.283Z,50.95
2022-09-25T05:38:00.561Z,57.20
2022-09-25T05:40:27.895Z,55.28
2022-09-25T05:42:55.412Z,30.95
2022-09-25T05:45:24.015Z,39.85
2022-09-25T05:48:02.161Z,42.80
2022-09-25T05:50:29.767Z,46.67
2022-09-25T05:52:58.277Z,59.60
2022-09-25T05:55:25.908Z,72.90
2022-09-25T05:57:52.921Z,75.20
2022-09-25T06:00:20.040Z,76.80
2022-09-25T06:02:52.387Z,60.55
2022-09-25T06:05:19.916Z,55.00
2022-09-25T06:07:52.987Z,57.67
2022-09-25T06:10:20.011Z,47.57
2022-09-25T06:12:46.929Z,46.75
2022-09-25T06:15:13.890Z,123.03
2022-09-25T06:17:40.788Z,49.97
2022-09-25T06:20:15.005Z,47.47
2022-09-25T06:22:44.631Z,37.40
2022-09-25T06:25:11.587Z,45.22
2022-09-25T06:27:38.475Z,39.28
2022-09-25T06:30:05.974Z,41.63
2022-09-25T06:32:32.912Z,37.88
2022-09-25T06:34:59.888Z,41.85
2022-09-25T06:37:26.762Z,28.85
2022-09-25T06:39:53.717Z,25.88
2022-09-25T06:42:20.569Z,20.00
2022-09-25T06:44:47.514Z,19.13
2022-09-25T06:47:18.441Z,3.63
2022-09-25T06:49:46.453Z,8.65
2022-09-25T06:52:13.433Z,11.13
2022-09-25T06:54:43.993Z,2.10
2022-09-25T06:57:12.744Z,7.28
2022-09-25T06:59:39.924Z,3.75
2022-09-25T07:02:25.811Z,8.25
2022-09-25T07:04:52.846Z,5.22
2022-09-25T07:07:20.598Z,7.78
2022-09-25T07:09:48.534Z,6.53
2022-09-25T07:12:17.739Z,5.90
2022-09-25T07:14:46.999Z,6.85
2022-09-25T07:17:14.656Z,3.40
2022-09-25T07:19:41.580Z,7.40
2022-09-25T07:22:08.483Z,3.75
2022-09-25T07:24:35.351Z,4.78
2022-09-25T07:27:02.244Z,5.13
2022-09-25T07:29:29.546Z,3.80
2022-09-25T07:31:56.466Z,4.05
2022-09-25T07:34:23.683Z,6.22
2022-09-25T07:36:53.013Z,7.53
2022-09-25T07:39:19.925Z,3.50
2022-09-25T07:41:47.726Z,4.95
2022-09-25T07:44:37.222Z,4.05
2022-09-25T07:47:03.954Z,2.40
2022-09-25T07:49:32.299Z,7.88
2022-09-25T07:51:59.742Z,5.88
2022-09-25T07:54:26.620Z,7.07
2022-09-25T07:56:53.757Z,2.20
2022-09-25T07:59:20.659Z,3.00
2022-09-25T08:01:53.462Z,5.00
2022-09-25T08:04:21.090Z,11.55
2022-09-25T08:06:47.971Z,6.38
2022-09-25T08:09:14.966Z,2.08
2022-09-25T08:11:41.943Z,3.47
2022-09-25T08:14:13.487Z,5.65
2022-09-25T08:16:41.109Z,3.17
2022-09-25T08:19:07.933Z,3.95
2022-09-25T08:21:35.627Z,2.85
2022-09-25T08:24:02.773Z,8.00
2022-09-25T08:26:30.372Z,7.38
2022-09-25T08:28:57.605Z,1.90
2022-09-25T08:31:24.633Z,2.50
2022-09-25T08:33:51.568Z,3.20
2022-09-25T08:36:18.860Z,2.17
2022-09-25T08:38:45.976Z,1.73
2022-09-25T08:41:22.896Z,2.60
2022-09-25T08:43:58.830Z,3.63
2022-09-25T08:46:59.614Z,2.97
2022-09-25T08:49:31.129Z,5.55
2022-09-25T08:52:05.339Z,5.72
2022-09-25T08:57:22.236Z,4.30
2022-09-25T08:59:59.787Z,10.95
2022-09-25T09:02:53.405Z,10.27
2022-09-25T09:05:32.321Z,5.75
2022-09-25T09:08:14.368Z,3.20
2022-09-25T09:10:45.628Z,5.15
2022-09-25T09:13:35.745Z,7.93
2022-09-25T09:16:05.957Z,1.33
2022-09-25T09:18:39.620Z,6.70
2022-09-25T09:21:18.541Z,2.20
2022-09-25T09:23:58.303Z,4.25
2022-09-25T09:26:37.227Z,2.22
2022-09-25T09:29:16.626Z,2.85
2022-09-25T09:31:56.811Z,1.90
2022-09-25T09:35:12.719Z,3.45
2022-09-25T09:38:02.899Z,20.45
2022-09-25T09:41:03.877Z,4.55
2022-09-25T09:44:12.670Z,4.60
2022-09-25T09:47:02.992Z,2.97
2022-09-25T09:49:31.187Z,2.80
2022-09-25T09:52:29.237Z,3.67
2022-09-25T09:55:02.555Z,3.03
2022-09-25T09:57:47.754Z,4.13
2022-09-25T10:00:17.805Z,3.30
2022-09-25T10:03:05.329Z,7.85
2022-09-25T10:05:41.695Z,3.13
2022-09-25T10:08:12.448Z,6.07
2022-09-25T10:10:50.029Z,3.30
2022-09-25T10:13:27.134Z,2.88
2022-09-25T10:16:02.135Z,5.18
2022-09-25T10:18:37.523Z,3.85
2022-09-25T10:21:11.626Z,1.52
2022-09-25T10:23:53.054Z,5.85
2022-09-25T10:26:30.406Z,3.92
2022-09-25T10:28:59.487Z,2.10
2022-09-25T10:31:30.422Z,3.80
2022-09-25T10:34:13.957Z,4.38
2022-09-25T10:36:47.212Z,2.53
2022-09-25T10:39:49.767Z,3.75
2022-09-25T10:42:46.211Z,1.05
2022-09-25T10:45:31.610Z,4.63
2022-09-25T10:48:17.400Z,1.77
2022-09-25T10:50:44.650Z,6.25
2022-09-25T10:53:30.216Z,1.52
2022-09-25T10:56:12.381Z,2.97
2022-09-25T10:58:51.390Z,3.47
2022-09-25T11:01:18.943Z,1.58
2022-09-25T11:03:56.182Z,8.02
2022-09-25T11:06:26.821Z,0.93
2022-09-25T11:09:12.798Z,3.38
2022-09-25T11:11:41.376Z,2.30
2022-09-25T11:14:32.828Z,2.40
2022-09-25T11:17:01.940Z,1.52
2022-09-25T11:19:31.917Z,7.38
2022-09-25T11:22:14.381Z,3.85
2022-09-25T11:24:47.199Z,3.58
2022-09-25T11:27:23.735Z,1.73
2022-09-25T11:30:02.662Z,1.30
2022-09-25T11:32:43.192Z,1.10
2022-09-25T11:35:24.979Z,1.25
2022-09-25T11:37:57.627Z,1.48
2022-09-25T11:41:14.855Z,2.20
2022-09-25T11:44:18.802Z,1.30
2022-09-25T11:47:02.222Z,1.27
2022-09-25T11:49:38.783Z,8.25
2022-09-25T11:52:16.567Z,1.83
2022-09-25T11:55:09.653Z,3.15
2022-09-25T11:57:49.816Z,3.45
2022-09-25T12:00:46.907Z,1.02
2022-09-25T12:03:35.390Z,2.28
2022-09-25T12:06:22.531Z,2.05
2022-09-25T12:09:12.187Z,1.90
2022-09-25T12:12:07.480Z,2.67
2022-09-25T12:14:59.865Z,3.38
2022-09-25T12:17:51.744Z,2.22
2022-09-25T12:20:41.373Z,2.92
2022-09-25T12:23:14.368Z,3.35
2022-09-25T12:26:16.669Z,3.45
2022-09-25T12:29:14.568Z,1.95
2022-09-25T12:31:52.637Z,1.20
2022-09-25T12:34:33.192Z,3.25
2022-09-25T12:37:06.910Z,3.17
2022-09-25T12:39:52.448Z,1.83
2022-09-25T12:42:38.624Z,4.20
2022-09-25T12:45:27.700Z,1.70
2022-09-25T12:48:10.315Z,2.15
2022-09-25T12:50:50.141Z,7.63
2022-09-25T12:53:17.022Z,1.40
2022-09-25T12:55:50.848Z,1.70
2022-09-25T12:58:59.543Z,3.33
2022-09-25T13:01:53.374Z,4.88
2022-09-25T13:04:43.510Z,3.63
2022-09-25T13:07:23.681Z,1.75
2022-09-25T13:09:50.815Z,2.25
2022-09-25T13:12:37.964Z,3.72
2022-09-25T13:15:16.151Z,1.33
2022-09-25T13:17:43.505Z,2.03
2022-09-25T13:20:28.854Z,1.60
2022-09-25T13:22:58.697Z,2.78
2022-09-25T13:25:27.331Z,1.65
2022-09-25T13:27:54.891Z,1.88
2022-09-25T13:30:26.297Z,1.23
2022-09-25T13:32:56.151Z,4.88
2022-09-25T13:35:24.120Z,1.60
2022-09-25T13:37:55.732Z,2.45
2022-09-25T13:40:46.330Z,1.90
2022-09-25T13:43:25.098Z,1.23
2022-09-25T13:46:17.934Z,4.18
2022-09-25T13:48:45.008Z,1.63
2022-09-25T13:51:20.735Z,1.27
2022-09-25T13:54:08.653Z,2.53
2022-09-25T13:56:41.593Z,6.18
2022-09-25T13:59:15.198Z,1.98
2022-09-25T14:01:55.704Z,4.85
2022-09-25T14:04:39.325Z,2.55
2022-09-25T14:07:23.898Z,5.85
2022-09-25T14:09:57.737Z,4.40
2022-09-25T14:12:51.984Z,3.78
2022-09-25T14:15:24.345Z,1.65
2022-09-25T14:17:53.324Z,2.75
2022-09-25T14:20:31.538Z,3.22
2022-09-25T14:23:03.418Z,6.40
2022-09-25T14:25:37.628Z,2.80
2022-09-25T14:28:22.404Z,5.15
2022-09-25T14:31:22.868Z,9.65
2022-09-25T14:34:26.024Z,2.63
2022-09-25T14:37:20.478Z,5.75
2022-09-25T14:40:06.061Z,3.75
2022-09-25T14:43:17.771Z,1.90
2022-09-25T14:45:47.757Z,2.10
2022-09-25T14:48:20.424Z,2.95
2022-09-25T14:50:53.754Z,6.40
2022-09-25T14:53:38.706Z,2.70
2022-09-25T14:56:14.618Z,2.45
2022-09-25T14:58:47.511Z,2.90
2022-09-25T15:01:29.600Z,1.88
2022-09-25T15:04:09.145Z,3.67
2022-09-25T15:06:39.271Z,6.18
2022-09-25T15:09:47.331Z,3.75
2022-09-25T15:12:34.083Z,8.10
2022-09-25T15:15:11.796Z,5.43
2022-09-25T15:18:13.015Z,4.57
2022-09-25T15:20:48.284Z,6.60
2022-09-25T15:23:21.422Z,2.70
2022-09-25T15:25:53.011Z,3.10
2022-09-25T15:28:25.452Z,4.00
2022-09-25T15:31:00.278Z,6.20
2022-09-25T15:33:34.184Z,2.30
2022-09-25T15:36:03.767Z,5.00
2022-09-25T15:38:34.685Z,6.75
2022-09-25T15:41:02.493Z,5.22
2022-09-25T15:43:32.300Z,3.78
2022-09-25T15:46:28.489Z,7.13
2022-09-25T15:48:59.723Z,6.75
2022-09-25T15:51:33.647Z,4.00
2022-09-25T15:54:04.325Z,5.10
2022-09-25T15:56:51.081Z,7.55
2022-09-25T15:59:22.470Z,18.05
2022-09-25T16:02:08.273Z,3.75
2022-09-25T16:04:49.469Z,3.53
2022-09-25T16:07:36.578Z,2.25
2022-09-25T16:10:09.353Z,6.15
2022-09-25T16:12:42.564Z,3.63
2022-09-25T16:15:27.475Z,6.43
2022-09-25T16:18:05.154Z,4.13
2022-09-25T16:20:40.334Z,3.67
2022-09-25T16:23:23.849Z,3.00
2022-09-25T16:25:50.977Z,3.65
2022-09-25T16:28:17.833Z,6.22
2022-09-25T16:31:11.395Z,3.55
2022-09-25T16:33:43.283Z,5.28
2022-09-25T16:36:18.213Z,3.90
2022-09-25T16:39:03.861Z,3.78
2022-09-25T16:44:14.891Z,5.07
2022-09-25T16:46:47.721Z,2.75
2022-09-25T16:49:14.829Z,13.80
2022-09-25T16:51:46.064Z,2.92
2022-09-25T16:54:17.762Z,7.70
2022-09-25T16:56:48.287Z,4.18
2022-09-25T16:59:24.386Z,2.45
2022-09-25T17:01:53.778Z,5.13
2022-09-25T17:04:24.054Z,4.38
2022-09-25T17:06:51.584Z,4.10
2022-09-25T17:09:19.013Z,3.10
2022-09-25T17:11:49.983Z,2.75
2022-09-25T17:14:23.425Z,49.97
2022-09-25T17:16:51.859Z,6.85
2022-09-25T17:19:19.435Z,62.53
2022-09-25T17:21:48.180Z,8.25
2022-09-25T17:24:16.868Z,5.32
2022-09-25T17:26:44.705Z,38.75
2022-09-25T17:29:12.380Z,461.98
2022-09-25T17:31:40.233Z,3.85
2022-09-25T17:34:19.001Z,4.07
2022-09-25T17:36:45.934Z,3.30
2022-09-25T17:39:13.791Z,4.82
2022-09-25T17:41:41.538Z,3.60
2022-09-25T17:44:17.042Z,3.08
2022-09-25T17:46:44.452Z,5.82
2022-09-25T17:49:11.757Z,2.97
2022-09-25T17:51:39.193Z,3.20
2022-09-25T17:54:06.731Z,5.35
2022-09-25T17:56:34.997Z,2.35
2022-09-25T17:59:02.604Z,2.42
2022-09-25T18:01:38.122Z,3.75
2022-09-25T18:04:23.256Z,5.85
2022-09-25T18:06:50.431Z,2.55
2022-09-25T18:09:17.657Z,4.63
2022-09-25T18:11:44.996Z,2.35
2022-09-25T18:14:14.222Z,4.97
2022-09-25T18:16:43.652Z,5.40
2022-09-25T18:19:34.669Z,2.45
2022-09-25T18:22:21.990Z,2.47
2022-09-25T18:24:54.356Z,3.80
2022-09-25T18:27:21.620Z,8.23
2022-09-25T18:29:48.496Z,7.60
2022-09-25T18:32:15.883Z,7.72
2022-09-25T18:34:43.338Z,2.58
2022-09-25T18:37:11.157Z,6.05
2022-09-25T18:39:38.139Z,6.80
2022-09-25T18:42:05.599Z,3.58
2022-09-25T18:44:38.436Z,3.22
2022-09-25T18:47:07.428Z,5.32
2022-09-25T18:49:35.412Z,3.72
2022-09-25T18:52:02.304Z,2.50
2022-09-25T18:54:29.396Z,5.05
2022-09-25T18:56:58.623Z,4.28
2022-09-25T18:59:28.971Z,2.53
2022-09-25T19:01:56.182Z,4.55
2022-09-25T19:04:23.575Z,8.23
2022-09-25T19:06:50.477Z,3.75
2022-09-25T19:09:18.230Z,5.35
2022-09-25T19:11:45.502Z,3.30
2022-09-25T19:14:15.058Z,6.72
2022-09-25T19:16:42.469Z,4.60
2022-09-25T19:19:09.855Z,5.90
2022-09-25T19:21:36.959Z,6.47
2022-09-25T19:24:04.738Z,2.88
2022-09-25T19:26:31.656Z,5.35
2022-09-25T19:28:58.577Z,4.90
2022-09-25T19:31:27.441Z,3.53
2022-09-25T19:33:55.831Z,3.63
2022-09-25T19:36:25.370Z,5.18
2022-09-25T19:38:53.825Z,6.07
2022-09-25T19:41:27.699Z,4.22
2022-09-25T19:43:59.266Z,5.53
2022-09-25T19:46:27.727Z,4.05
2022-09-25T19:48:54.889Z,3.35
2022-09-25T19:51:23.735Z,9.27
2022-09-25T19:53:51.636Z,4.65
2022-09-25T19:56:19.546Z,8.55
2022-09-25T19:58:49.729Z,3.17
2022-09-25T20:01:43.265Z,8.27
2022-09-25T20:04:17.224Z,7.07
2022-09-25T20:06:46.025Z,9.68
2022-09-25T20:09:13.169Z,6.68
2022-09-25T20:11:40.201Z,11.88
2022-09-25T20:14:07.910Z,5.20
2022-09-25T20:16:36.318Z,11.27
2022-09-25T20:19:06.216Z,4.50
2022-09-25T20:21:35.909Z,9.00
2022-09-25T20:24:05.258Z,9.30
2022-09-25T20:26:32.889Z,15.82
2022-09-25T20:29:02.156Z,16.38
2022-09-25T20:31:31.255Z,8.88
2022-09-25T20:33:58.775Z,5.68
2022-09-25T20:36:26.016Z,6.32
2022-09-25T20:38:55.026Z,7.07
2022-09-25T20:41:23.844Z,7.28
2022-09-25T20:43:58.048Z,5.55
2022-09-25T20:46:26.592Z,3.70
2022-09-25T20:48:57.161Z,11.25
2022-09-25T20:51:29.852Z,9.63
2022-09-25T20:54:02.730Z,10.20
2022-09-25T20:56:31.309Z,4.40
2022-09-25T20:58:59.355Z,5.53
2022-09-25T21:01:29.209Z,8.60
2022-09-25T21:03:59.770Z,4.90
2022-09-25T21:06:29.443Z,12.63
2022-09-25T21:09:00.963Z,3.97
2022-09-25T21:11:30.252Z,10.05
2022-09-25T21:13:59.159Z,3.55
2022-09-25T21:16:28.144Z,5.18
2022-09-25T21:18:57.807Z,5.72
2022-09-25T21:21:26.004Z,9.02
2022-09-25T21:23:54.854Z,5.15
2022-09-25T21:26:24.178Z,6.40
2022-09-25T21:28:53.770Z,13.20
2022-09-25T21:31:23.660Z,6.53
2022-09-25T21:33:53.020Z,9.82
2022-09-25T21:36:21.051Z,7.50
2022-09-25T21:38:49.342Z,13.57
2022-09-25T21:41:19.024Z,4.65
2022-09-25T21:43:46.924Z,10.77
2022-09-25T21:46:15.377Z,3.42
2022-09-25T21:48:48.381Z,6.10
2022-09-25T21:51:16.152Z,11.98
2022-09-25T21:53:43.573Z,4.68
2022-09-25T21:56:17.541Z,3.58
2022-09-25T21:58:45.899Z,6.30
2022-09-25T22:01:12.821Z,7.80
2022-09-25T22:03:42.733Z,13.73
2022-09-25T22:06:15.899Z,7.72
2022-09-25T22:08:48.994Z,4.32
2022-09-25T22:11:16.628Z,5.72
2022-09-25T22:13:45.486Z,7.82
2022-09-25T22:16:21.716Z,9.15
2022-09-25T22:19:10.795Z,6.20
2022-09-25T22:21:38.827Z,8.70
2022-09-25T22:24:06.269Z,10.00
2022-09-25T22:26:36.758Z,8.38
2022-09-25T22:29:04.049Z,8.40
2022-09-25T22:31:33.012Z,4.75
2022-09-25T22:34:08.156Z,6.53
2022-09-25T22:39:05.089Z,6.35
2022-09-25T22:41:33.116Z,6.40
2022-09-25T22:44:01.159Z,9.52
2022-09-25T22:46:29.438Z,11.45
2022-09-25T22:48:56.686Z,8.30
2022-09-25T22:51:25.404Z,8.25
2022-09-25T22:53:53.918Z,6.72
2022-09-25T22:56:25.101Z,9.75
2022-09-25T22:58:57.704Z,11.88
2022-09-25T23:01:40.424Z,8.32
2022-09-25T23:04:13.474Z,8.30
2022-09-25T23:06:41.096Z,7.78
2022-09-25T23:09:11.989Z,8.13
2022-09-25T23:11:39.329Z,9.38
2022-09-25T23:14:17.250Z,9.00
2022-09-25T23:16:46.139Z,8.48
2022-09-25T23:19:14.345Z,9.25
2022-09-25T23:21:41.719Z,12.63
2022-09-25T23:24:12.543Z,6.22
2022-09-25T23:26:39.951Z,8.98
2022-09-25T23:29:06.882Z,8.68
2022-09-25T23:31:34.267Z,10.27
2022-09-25T23:34:02.423Z,9.52
2022-09-25T23:36:30.297Z,6.68
2022-09-25T23:39:00.476Z,7.43
2022-09-25T23:41:33.154Z,7.20
2022-09-25T23:44:01.643Z,9.05
2022-09-25T23:46:31.365Z,6.90
2022-09-25T23:48:59.189Z,9.13
2022-09-25T23:51:26.419Z,15.93
2022-09-25T23:53:54.961Z,10.93
2022-09-25T23:56:24.629Z,10.27
2022-09-25T23:58:52.502Z,7.70
